Time;durP1;ratioP1;P1;durP2;ratioP2;P2;SDS_P1;SDS_P2;PMS_P1;PMS_P2;Temp;Humidity;BMP_temperature;BMP_pressure;BME280_temperature;BME280_humidity;BME280_pressure;Samples;Min_cycle;Max_cycle;Signal;HPM_P1;HPM_P2
2023/01/10 00:00:22;;;;;;;15.80;3.27;;;5.90;99.90;;;;;;5075823;28;20283;-68
2023/01/10 00:03:29;;;;;;;9.97;3.33;;;5.90;99.90;;;;;;5075813;28;20179;-68
2023/01/10 00:05:57;;;;;;;12.10;3.17;;;6.00;99.90;;;;;;5074196;28;20206;-67
2023/01/10 00:08:26;;;;;;;12.80;3.87;;;5.90;99.90;;;;;;5074114;28;20188;-67
2023/01/10 00:10:54;;;;;;;21.10;3.70;;;5.90;99.90;;;;;;5093956;28;20201;-68
2023/01/10 00:13:22;;;;;;;14.10;3.70;;;5.90;99.90;;;;;;5093297;28;20284;-68
2023/01/10 00:15:52;;;;;;;9.87;3.37;;;6.00;99.90;;;;;;5074049;28;20198;-67
2023/01/10 00:18:20;;;;;;;18.63;3.40;;;6.00;99.90;;;;;;5075801;28;20192;-67
2023/01/10 00:20:50;;;;;;;16.67;3.60;;;6.00;99.90;;;;;;5073780;28;20239;-68
2023/01/10 00:23:23;;;;;;;15.90;3.67;;;6.10;99.90;;;;;;5075384;28;20200;-68
2023/01/10 00:25:51;;;;;;;12.70;3.13;;;6.10;99.90;;;;;;5057827;28;20585;-67
2023/01/10 00:28:20;;;;;;;11.33;3.20;;;6.10;99.90;;;;;;5075204;28;20523;-68
2023/01/10 00:30:53;;;;;;;16.67;3.47;;;6.10;99.90;;;;;;5075490;28;20270;-68
2023/01/10 00:33:22;;;;;;;12.97;3.20;;;6.10;99.90;;;;;;5075199;28;20196;-68
2023/01/10 00:35:52;;;;;;;14.13;3.60;;;6.00;99.90;;;;;;5074790;28;20192;-68
2023/01/10 00:38:20;;;;;;;14.83;4.37;;;6.10;99.90;;;;;;5075059;28;20192;-68
2023/01/10 00:40:49;;;;;;;15.33;3.63;;;6.00;99.90;;;;;;5074796;28;20192;-68
2023/01/10 00:46:04;;;;;;;18.37;4.30;;;5.90;99.90;;;;;;5074667;28;20199;-68
2023/01/10 00:48:32;;;;;;;14.40;3.50;;;5.80;99.90;;;;;;5074589;28;20188;-68
2023/01/10 00:51:02;;;;;;;17.17;3.70;;;5.70;99.90;;;;;;5074929;28;20190;-68
2023/01/10 00:53:31;;;;;;;22.30;4.17;;;5.60;99.90;;;;;;5073148;28;20714;-68
2023/01/10 00:55:59;;;;;;;19.93;4.10;;;5.60;99.90;;;;;;5074891;28;20267;-68
2023/01/10 00:58:29;;;;;;;15.90;3.50;;;5.50;99.90;;;;;;5074329;28;20204;-68
2023/01/10 01:00:58;;;;;;;18.03;3.63;;;5.40;99.90;;;;;;5073409;28;20192;-68
2023/01/10 01:03:27;;;;;;;12.20;3.37;;;5.40;99.90;;;;;;5074267;28;20196;-68
2023/01/10 01:05:55;;;;;;;11.43;3.47;;;5.40;99.90;;;;;;5072817;28;20212;-67
2023/01/10 01:08:25;;;;;;;14.47;3.77;;;5.40;99.90;;;;;;5074106;28;20551;-68
2023/01/10 01:10:53;;;;;;;19.93;3.70;;;5.40;99.90;;;;;;5074185;28;20642;-68
2023/01/10 01:13:22;;;;;;;14.17;3.80;;;5.40;99.90;;;;;;5074076;28;20200;-68
2023/01/10 01:15:50;;;;;;;16.83;3.60;;;5.40;99.90;;;;;;5072726;28;20192;-68
2023/01/10 01:18:21;;;;;;;18.00;3.57;;;5.50;99.90;;;;;;5074531;28;20188;-68
2023/01/10 01:20:53;;;;;;;16.83;3.67;;;5.50;99.90;;;;;;5073800;28;20239;-68
2023/01/10 01:23:23;;;;;;;20.77;3.70;;;5.60;99.90;;;;;;5073088;28;20673;-68
2023/01/10 01:25:52;;;;;;;21.23;3.83;;;5.60;99.90;;;;;;5073914;28;20567;-68
2023/01/10 01:28:21;;;;;;;16.97;3.63;;;5.60;99.90;;;;;;5073736;28;20187;-67
2023/01/10 01:30:50;;;;;;;18.43;3.83;;;5.70;99.90;;;;;;5074386;28;20196;-68
2023/01/10 01:33:20;;;;;;;16.20;3.80;;;5.70;99.90;;;;;;5073799;28;20539;-68
2023/01/10 01:35:49;;;;;;;16.80;3.53;;;5.80;99.90;;;;;;5074215;28;20187;-67
2023/01/10 01:38:18;;;;;;;17.77;3.93;;;5.80;99.90;;;;;;5072511;28;20195;-68
2023/01/10 01:40:46;;;;;;;17.10;3.90;;;5.80;99.90;;;;;;5072256;28;20807;-68
2023/01/10 01:43:25;;;;;;;22.43;3.90;;;5.80;99.90;;;;;;5073531;28;20192;-68
2023/01/10 01:45:54;;;;;;;20.17;3.90;;;5.80;99.90;;;;;;5073774;28;20211;-68
2023/01/10 01:48:31;;;;;;;26.00;4.30;;;5.80;99.90;;;;;;5072933;28;20203;-68
2023/01/10 01:51:07;;;;;;;18.13;3.93;;;5.80;99.90;;;;;;5072919;28;20218;-68
2023/01/10 01:53:40;;;;;;;17.90;3.97;;;5.70;99.90;;;;;;5073600;28;20542;-68
2023/01/10 01:56:14;;;;;;;17.67;4.47;;;5.70;99.90;;;;;;5073315;28;20535;-68
2023/01/10 01:58:48;;;;;;;19.00;4.03;;;5.60;99.90;;;;;;5073609;28;20215;-67
2023/01/10 02:05:53;;;;;;;27.23;4.70;;;5.40;99.90;;;;;;5073310;28;20283;-68
2023/01/10 02:08:22;;;;;;;29.30;4.50;;;5.30;99.90;;;;;;5072295;28;20196;-68
2023/01/10 02:10:57;;;;;;;24.23;4.73;;;5.20;99.90;;;;;;5073264;28;20192;-68
2023/01/10 02:13:27;;;;;;;19.13;4.20;;;5.10;99.90;;;;;;5073152;28;20187;-68
2023/01/10 02:15:57;;;;;;;16.97;3.83;;;5.10;99.90;;;;;;5072200;28;20207;-68
2023/01/10 02:18:25;;;;;;;21.63;4.23;;;5.10;99.90;;;;;;5073160;28;20188;-68
2023/01/10 02:21:11;;;;;;;18.73;3.93;;;5.00;99.90;;;;;;5072899;28;20574;-68
2023/01/10 02:24:11;;;;;;;17.90;4.30;;;4.90;99.90;;;;;;5071947;28;20611;-69
2023/01/10 02:27:11;;;;;;;11.53;3.67;;;4.80;99.90;;;;;;5073055;28;20208;-68
2023/01/10 02:30:32;;;;;;;23.13;4.63;;;4.80;99.90;;;;;;5071814;28;20192;-68
2023/01/10 02:33:10;;;;;;;22.37;4.53;;;4.70;99.90;;;;;;5055070;28;20203;-68
2023/01/10 02:36:05;;;;;;;17.80;3.80;;;4.60;99.90;;;;;;5072983;28;20190;-68
2023/01/10 02:38:42;;;;;;;23.33;4.20;;;4.50;99.90;;;;;;5073481;28;20267;-68
2023/01/10 02:41:21;;;;;;;20.90;4.37;;;4.50;99.90;;;;;;5072921;28;20192;-68
2023/01/10 02:43:55;;;;;;;19.40;4.33;;;4.40;99.90;;;;;;5071854;28;20271;-67
2023/01/10 02:46:27;;;;;;;17.20;3.57;;;4.30;99.90;;;;;;5073148;28;20207;-68
2023/01/10 02:48:57;;;;;;;15.57;4.10;;;4.30;99.90;;;;;;5073315;28;20518;-67
2023/01/10 02:51:27;;;;;;;27.03;4.00;;;4.40;99.90;;;;;;5072943;28;20271;-68
2023/01/10 02:54:00;;;;;;;24.83;4.57;;;4.40;99.90;;;;;;5072786;28;20563;-68
2023/01/10 02:57:10;;;;;;;25.33;4.53;;;4.40;99.90;;;;;;5072844;28;20190;-68
2023/01/10 03:04:31;;;;;;;23.53;4.20;;;4.40;99.90;;;;;;5096917;28;20158;-68
2023/01/10 03:07:08;;;;;;;23.57;4.23;;;4.40;99.90;;;;;;5096827;28;20711;-67
2023/01/10 03:09:48;;;;;;;32.07;4.97;;;4.40;99.90;;;;;;5095509;28;20198;-68
2023/01/10 03:12:24;;;;;;;25.37;4.50;;;4.40;99.90;;;;;;5095551;28;20197;-68
2023/01/10 03:14:57;;;;;;;22.37;4.73;;;4.50;99.90;;;;;;5096895;28;20253;-68
2023/01/10 03:17:27;;;;;;;21.87;4.80;;;4.40;99.90;;;;;;5095471;28;20198;-67
2023/01/10 03:20:00;;;;;;;20.43;4.57;;;4.30;99.90;;;;;;5096567;28;20219;-67
2023/01/10 03:22:33;;;;;;;21.80;4.53;;;4.30;99.90;;;;;;5096538;28;20191;-68
2023/01/10 03:25:04;;;;;;;28.40;4.40;;;4.30;99.90;;;;;;5096652;28;20191;-68
2023/01/10 03:27:42;;;;;;;32.33;4.40;;;4.30;99.90;;;;;;5096552;28;20530;-68
2023/01/10 03:34:48;;;;;;;19.33;4.03;;;4.20;99.90;;;;;;5096346;28;20159;-68
2023/01/10 03:37:26;;;;;;;27.30;4.17;;;4.10;99.90;;;;;;5094884;28;20542;-68
2023/01/10 03:40:00;;;;;;;18.07;4.20;;;4.10;99.90;;;;;;5096185;28;20194;-68
2023/01/10 03:44:42;;;;;;;27.90;5.10;;;4.20;99.90;;;;;;5096164;28;20195;-68
2023/01/10 03:45:32;;;;;;;23.27;3.70;;;4.20;99.90;;;;;;5095258;28;20215;-67
2023/01/10 03:48:05;;;;;;;29.17;4.07;;;4.20;99.90;;;;;;5096014;28;20545;-67
2023/01/10 03:50:35;;;;;;;26.53;4.37;;;4.20;99.90;;;;;;5088967;28;20273;-68
2023/01/10 03:53:05;;;;;;;18.87;3.90;;;4.20;99.90;;;;;;5076181;28;20192;-68
2023/01/10 03:55:36;;;;;;;40.73;5.20;;;4.20;99.90;;;;;;5075654;28;20180;-68
2023/01/10 03:58:04;;;;;;;29.57;4.37;;;4.20;99.90;;;;;;5074274;28;20208;-67
2023/01/10 04:00:33;;;;;;;21.50;3.60;;;4.20;99.90;;;;;;5074316;28;20661;-68
2023/01/10 04:07:40;;;;;;;27.63;4.37;;;4.30;99.90;;;;;;5075475;28;20358;-68
2023/01/10 04:10:10;;;;;;;22.80;4.17;;;4.30;99.90;;;;;;5075164;28;20195;-68
2023/01/10 04:12:39;;;;;;;13.67;3.53;;;4.30;99.90;;;;;;5075014;28;20188;-68
2023/01/10 04:15:08;;;;;;;27.27;4.80;;;4.30;99.90;;;;;;5073958;28;20241;-68
2023/01/10 04:17:36;;;;;;;23.77;4.53;;;4.30;99.90;;;;;;5073986;28;20198;-68
2023/01/10 04:20:06;;;;;;;21.13;4.40;;;4.30;99.90;;;;;;5075077;28;20246;-68
2023/01/10 04:22:34;;;;;;;27.67;4.43;;;4.20;99.90;;;;;;5075813;28;20188;-68
2023/01/10 04:25:03;;;;;;;23.90;4.17;;;4.20;99.90;;;;;;5075155;28;20673;-68
2023/01/10 04:27:32;;;;;;;35.73;4.53;;;4.20;99.90;;;;;;5073624;28;20640;-68
2023/01/10 04:30:01;;;;;;;30.10;4.73;;;4.20;99.90;;;;;;5056958;28;20204;-68
2023/01/10 04:32:29;;;;;;;28.77;4.57;;;4.20;99.90;;;;;;5074843;28;20643;-68
2023/01/10 04:34:57;;;;;;;28.67;4.77;;;4.20;99.90;;;;;;5074854;28;20195;-68
2023/01/10 04:37:25;;;;;;;25.33;4.93;;;4.20;99.90;;;;;;5074798;28;20196;-68
2023/01/10 04:39:54;;;;;;;22.77;4.40;;;4.20;99.90;;;;;;5073588;28;20188;-68
2023/01/10 04:42:22;;;;;;;26.53;5.00;;;4.20;99.90;;;;;;5075225;28;20192;-68
2023/01/10 04:44:52;;;;;;;22.00;4.57;;;4.10;99.90;;;;;;5073397;28;20188;-68
2023/01/10 04:47:20;;;;;;;21.37;4.53;;;4.00;99.90;;;;;;5074555;28;20200;-68
2023/01/10 04:49:49;;;;;;;27.13;4.60;;;4.00;99.90;;;;;;5074631;28;20230;-68
2023/01/10 04:52:17;;;;;;;23.57;4.83;;;4.00;99.90;;;;;;5074567;28;20188;-68
2023/01/10 04:54:45;;;;;;;25.40;4.60;;;4.00;99.90;;;;;;5074825;28;20224;-68
2023/01/10 04:57:14;;;;;;;31.83;5.03;;;3.90;99.90;;;;;;5073142;28;20208;-68
2023/01/10 04:59:42;;;;;;;21.37;4.67;;;3.90;99.90;;;;;;5073011;28;20654;-68
2023/01/10 05:02:12;;;;;;;27.43;4.77;;;3.90;99.90;;;;;;5073298;28;20607;-68
2023/01/10 05:05:18;;;;;;;21.43;4.50;;;3.80;99.90;;;;;;5074630;28;20175;-68
2023/01/10 05:07:47;;;;;;;23.13;4.90;;;3.80;99.90;;;;;;5073336;28;20697;-68
2023/01/10 05:10:15;;;;;;;20.30;4.33;;;3.70;99.90;;;;;;5074511;28;20275;-68
2023/01/10 05:12:46;;;;;;;31.00;4.77;;;3.70;99.90;;;;;;5072950;28;20547;-67
2023/01/10 05:15:15;;;;;;;24.53;4.77;;;3.80;99.90;;;;;;5073006;28;20195;-68
2023/01/10 05:17:44;;;;;;;26.17;4.83;;;3.80;99.90;;;;;;5072759;28;20185;-69
2023/01/10 05:20:13;;;;;;;34.20;5.73;;;3.70;99.90;;;;;;5073717;28;20238;-68
2023/01/10 05:22:41;;;;;;;29.53;6.33;;;3.70;99.90;;;;;;5071780;28;20184;-68
2023/01/10 05:25:10;;;;;;;23.47;4.40;;;3.70;99.90;;;;;;5074347;28;20191;-68
2023/01/10 05:27:41;;;;;;;27.57;4.90;;;3.60;99.90;;;;;;5072708;28;20200;-68
2023/01/10 05:30:12;;;;;;;29.90;5.27;;;3.70;99.90;;;;;;5073994;28;20260;-68
2023/01/10 05:32:40;;;;;;;25.37;6.43;;;3.70;99.90;;;;;;5073923;28;20192;-68
2023/01/10 05:35:13;;;;;;;30.20;5.50;;;3.70;99.90;;;;;;5072472;28;20196;-68
2023/01/10 05:37:42;;;;;;;28.90;5.13;;;3.60;99.90;;;;;;5073705;28;20306;-68
2023/01/10 05:40:12;;;;;;;25.27;5.00;;;3.70;99.90;;;;;;5073604;28;20280;-68
2023/01/10 05:42:41;;;;;;;21.70;4.20;;;3.70;99.90;;;;;;5073515;28;20184;-68
2023/01/10 05:45:12;;;;;;;22.60;4.50;;;3.70;99.90;;;;;;5055594;28;20195;-67
2023/01/10 05:47:40;;;;;;;28.93;4.13;;;3.60;99.90;;;;;;5073488;28;20211;-68
2023/01/10 05:50:12;;;;;;;25.57;4.47;;;3.60;99.90;;;;;;5073652;28;20188;-68
2023/01/10 05:52:40;;;;;;;29.00;4.63;;;3.50;99.90;;;;;;5072328;28;20629;-68
2023/01/10 05:55:09;;;;;;;24.30;4.87;;;3.50;99.90;;;;;;5073860;28;20279;-68
2023/01/10 05:57:37;;;;;;;26.20;4.83;;;3.50;99.90;;;;;;5073567;28;20212;-68
2023/01/10 06:00:10;;;;;;;30.70;5.20;;;3.50;99.90;;;;;;5073392;28;20196;-68
2023/01/10 06:07:23;;;;;;;22.13;4.47;;;3.50;99.90;;;;;;5053270;28;20199;-68
2023/01/10 06:09:51;;;;;;;26.10;4.43;;;3.50;99.90;;;;;;5053217;28;20203;-68
2023/01/10 06:12:20;;;;;;;25.23;4.47;;;3.40;99.90;;;;;;5053205;28;20200;-68
2023/01/10 06:14:48;;;;;;;24.83;4.27;;;3.40;99.90;;;;;;5053126;28;20195;-67
2023/01/10 06:17:16;;;;;;;24.07;4.87;;;3.30;99.90;;;;;;5070849;28;20280;-68
2023/01/10 06:19:45;;;;;;;25.20;4.13;;;3.30;99.90;;;;;;5073223;28;20224;-67
2023/01/10 06:22:14;;;;;;;34.83;4.87;;;3.30;99.90;;;;;;5073094;28;20554;-68
2023/01/10 06:24:44;;;;;;;27.60;5.30;;;3.30;99.90;;;;;;5073104;28;20192;-67
2023/01/10 06:27:12;;;;;;;21.30;5.07;;;3.30;99.90;;;;;;5071768;28;20570;-68
2023/01/10 06:29:43;;;;;;;20.97;4.83;;;3.20;99.90;;;;;;5071936;28;20184;-68
2023/01/10 06:32:11;;;;;;;29.57;4.80;;;3.20;99.90;;;;;;5055010;28;20195;-68
2023/01/10 06:34:40;;;;;;;28.73;5.40;;;3.20;99.90;;;;;;5075039;28;20196;-68
2023/01/10 06:37:08;;;;;;;21.67;4.77;;;3.20;99.90;;;;;;5117039;27;20194;-68
2023/01/10 06:39:38;;;;;;;23.73;5.20;;;3.20;99.90;;;;;;5093052;28;20196;-68
2023/01/10 06:42:08;;;;;;;27.80;4.57;;;3.10;99.90;;;;;;5075730;28;20237;-68
2023/01/10 06:44:36;;;;;;;24.17;4.57;;;3.10;99.90;;;;;;5058994;28;20192;-68
2023/01/10 06:47:04;;;;;;;23.67;4.57;;;3.10;99.90;;;;;;5075683;28;20277;-68
2023/01/10 06:49:33;;;;;;;28.93;4.93;;;3.10;99.90;;;;;;5075723;28;20599;-68
2023/01/10 06:52:01;;;;;;;26.70;4.47;;;3.10;99.90;;;;;;5076861;28;20196;-67
2023/01/10 06:54:29;;;;;;;25.73;4.03;;;3.10;99.90;;;;;;5076703;28;20188;-68
2023/01/10 06:56:58;;;;;;;19.83;4.10;;;3.10;99.90;;;;;;5077273;28;20271;-68
2023/01/10 06:59:28;;;;;;;24.97;4.10;;;3.10;99.90;;;;;;5075529;28;20215;-68
2023/01/10 07:01:56;;;;;;;25.83;4.43;;;3.10;99.90;;;;;;5076657;28;20198;-68
2023/01/10 07:04:25;;;;;;;27.30;4.93;;;3.20;99.90;;;;;;5076551;28;20214;-68
2023/01/10 07:06:54;;;;;;;26.77;4.07;;;3.20;99.90;;;;;;5075194;28;20192;-68
2023/01/10 07:09:22;;;;;;;20.83;4.23;;;3.30;99.90;;;;;;5075253;28;20184;-68
2023/01/10 07:11:50;;;;;;;22.30;4.23;;;3.30;99.90;;;;;;5076410;28;20544;-68
2023/01/10 07:14:19;;;;;;;17.20;4.03;;;3.40;99.90;;;;;;5076439;28;20196;-68
2023/01/10 07:16:49;;;;;;;20.60;4.30;;;3.40;99.90;;;;;;5076465;28;20196;-68
2023/01/10 07:19:18;;;;;;;19.93;3.93;;;3.40;99.90;;;;;;5076129;28;20228;-68
2023/01/10 07:21:47;;;;;;;23.60;4.27;;;3.50;99.90;;;;;;5076565;28;20188;-68
2023/01/10 07:24:15;;;;;;;25.00;4.07;;;3.40;99.90;;;;;;5076151;28;20198;-68
2023/01/10 07:26:43;;;;;;;23.37;4.50;;;3.40;99.90;;;;;;5075944;28;20191;-68
2023/01/10 07:29:12;;;;;;;22.30;4.43;;;3.50;99.90;;;;;;5075780;28;20216;-68
2023/01/10 07:31:40;;;;;;;20.00;3.90;;;3.50;99.90;;;;;;5075842;28;20211;-68
2023/01/10 07:34:10;;;;;;;15.80;3.90;;;3.50;99.90;;;;;;5074272;28;20711;-68
2023/01/10 07:36:39;;;;;;;14.93;3.90;;;3.50;99.90;;;;;;5075930;28;20192;-68
2023/01/10 07:39:08;;;;;;;19.60;4.03;;;3.60;99.90;;;;;;5074496;28;20189;-68
2023/01/10 07:41:37;;;;;;;22.17;4.43;;;3.60;99.90;;;;;;5108504;28;20658;-68
2023/01/10 07:44:05;;;;;;;25.03;4.10;;;3.70;99.90;;;;;;5075851;28;20192;-68
2023/01/10 07:46:34;;;;;;;28.63;6.50;;;3.70;99.90;;;;;;5074816;28;20760;-68
2023/01/10 07:49:02;;;;;;;22.50;4.00;;;3.70;99.90;;;;;;5075321;28;20220;-68
2023/01/10 07:51:32;;;;;;;22.63;4.70;;;3.70;99.90;;;;;;5075986;28;20646;-68
2023/01/10 07:54:00;;;;;;;19.67;4.53;;;3.80;99.90;;;;;;5074714;28;20203;-68
2023/01/10 07:56:29;;;;;;;27.50;4.73;;;3.80;99.90;;;;;;5074425;28;20283;-68
2023/01/10 07:59:00;;;;;;;19.10;4.10;;;3.80;99.90;;;;;;5075648;28;20535;-68
2023/01/10 08:01:29;;;;;;;19.40;4.03;;;3.80;99.90;;;;;;5074452;28;20192;-68
2023/01/10 08:03:58;;;;;;;22.20;4.00;;;3.80;99.90;;;;;;5074505;28;20188;-68
2023/01/10 08:06:26;;;;;;;18.83;4.20;;;3.80;99.90;;;;;;5075554;28;20195;-69
2023/01/10 08:08:56;;;;;;;24.57;4.13;;;3.80;99.90;;;;;;5075368;28;20215;-68
2023/01/10 08:11:24;;;;;;;26.83;3.90;;;3.90;99.90;;;;;;5075375;28;20647;-68
2023/01/10 08:13:53;;;;;;;17.23;4.27;;;3.90;99.90;;;;;;5074419;28;20696;-68
2023/01/10 08:16:22;;;;;;;16.50;4.40;;;3.90;99.90;;;;;;5075332;28;20194;-68
2023/01/10 08:18:50;;;;;;;16.97;4.73;;;3.90;99.90;;;;;;5075348;28;20188;-68
2023/01/10 08:21:18;;;;;;;15.57;4.57;;;4.00;99.90;;;;;;5075042;28;20234;-68
2023/01/10 08:23:46;;;;;;;25.43;4.87;;;4.00;99.90;;;;;;5074066;28;20210;-68
2023/01/10 08:26:16;;;;;;;24.60;4.43;;;4.10;99.90;;;;;;5075072;28;20202;-68
2023/01/10 08:28:44;;;;;;;15.73;4.73;;;4.10;99.90;;;;;;5073636;28;20570;-68
2023/01/10 08:31:13;;;;;;;20.20;4.53;;;4.10;99.90;;;;;;5075021;28;20204;-69
2023/01/10 08:33:41;;;;;;;18.77;4.00;;;4.10;99.90;;;;;;5074900;28;20188;-68
2023/01/10 08:36:16;;;;;;;26.97;4.37;;;4.20;99.90;;;;;;5075313;28;20196;-68
2023/01/10 08:38:44;;;;;;;19.57;4.57;;;4.30;99.90;;;;;;5073832;28;20704;-68
2023/01/10 08:41:13;;;;;;;24.87;5.00;;;4.30;99.90;;;;;;5074729;28;20647;-68
2023/01/10 08:43:43;;;;;;;20.87;4.60;;;4.30;99.90;;;;;;5074810;28;20274;-69
2023/01/10 08:46:12;;;;;;;16.80;4.20;;;4.30;99.90;;;;;;5074724;28;20216;-68
2023/01/10 08:48:40;;;;;;;24.23;4.20;;;4.40;99.90;;;;;;5075004;28;20290;-68
2023/01/10 08:51:10;;;;;;;23.90;4.00;;;4.40;99.90;;;;;;5074468;28;20200;-68
2023/01/10 08:53:39;;;;;;;23.23;4.67;;;4.50;99.90;;;;;;5074386;28;20192;-67
2023/01/10 08:56:08;;;;;;;20.93;4.43;;;4.60;99.90;;;;;;5074820;28;20231;-68
2023/01/10 08:58:37;;;;;;;26.07;4.60;;;4.60;99.90;;;;;;5074257;28;20208;-67
2023/01/10 09:01:08;;;;;;;28.03;4.50;;;4.60;99.90;;;;;;5074476;28;20196;-68
2023/01/10 09:03:36;;;;;;;26.60;4.70;;;4.70;99.90;;;;;;5073090;28;20211;-68
2023/01/10 09:06:05;;;;;;;24.40;4.50;;;4.70;99.90;;;;;;5074539;28;20193;-68
2023/01/10 09:08:33;;;;;;;25.70;4.40;;;4.80;99.90;;;;;;5074162;28;20214;-68
2023/01/10 09:11:03;;;;;;;22.47;4.43;;;4.80;99.90;;;;;;5073261;28;20283;-68
2023/01/10 09:13:32;;;;;;;16.10;4.77;;;4.80;99.90;;;;;;5074084;28;20195;-67
2023/01/10 09:16:00;;;;;;;28.53;4.47;;;4.90;99.90;;;;;;5074018;28;20279;-67
2023/01/10 09:18:30;;;;;;;21.97;4.23;;;4.90;99.90;;;;;;5073031;28;20196;-68
2023/01/10 09:20:59;;;;;;;21.47;4.23;;;4.90;99.90;;;;;;5072656;28;20262;-68
2023/01/10 09:23:27;;;;;;;16.03;3.97;;;4.90;99.90;;;;;;5073922;28;20202;-68
2023/01/10 09:25:56;;;;;;;18.63;3.83;;;4.90;99.90;;;;;;5074027;28;20188;-68
2023/01/10 09:28:24;;;;;;;16.20;4.40;;;5.00;99.90;;;;;;5073706;28;20215;-68
2023/01/10 09:30:53;;;;;;;23.20;4.27;;;5.10;99.90;;;;;;5073783;28;20278;-67
2023/01/10 09:33:22;;;;;;;23.57;3.77;;;5.10;99.90;;;;;;5073711;28;20188;-68
2023/01/10 09:35:51;;;;;;;20.77;3.70;;;5.20;99.90;;;;;;5074279;28;20188;-68
2023/01/10 09:38:21;;;;;;;10.87;3.97;;;5.20;99.90;;;;;;5073716;28;20535;-68
2023/01/10 09:41:07;;;;;;;22.47;4.13;;;5.30;99.90;;;;;;5073655;28;20192;-68
2023/01/10 09:43:46;;;;;;;24.17;5.30;;;5.30;99.90;;;;;;5072797;28;20180;-69
2023/01/10 09:46:20;;;;;;;20.40;4.13;;;5.30;99.90;;;;;;5073666;28;20223;-68
2023/01/10 09:48:55;;;;;;;20.63;4.30;;;5.30;99.90;;;;;;5073438;28;20242;-68
2023/01/10 09:51:34;;;;;;;19.33;4.13;;;5.40;99.90;;;;;;5073446;28;20200;-68
2023/01/10 09:54:07;;;;;;;24.07;4.13;;;5.50;99.90;;;;;;5055735;28;20195;-67
2023/01/10 09:56:40;;;;;;;28.73;5.20;;;5.50;99.90;;;;;;5073397;28;20202;-68
2023/01/10 09:59:15;;;;;;;27.40;4.83;;;5.60;99.90;;;;;;5072032;28;20216;-68
2023/01/10 10:01:47;;;;;;;24.27;4.40;;;5.60;99.90;;;;;;5073380;28;20270;-68
2023/01/10 10:04:23;;;;;;;22.10;4.90;;;5.70;99.90;;;;;;5072127;28;20192;-68
2023/01/10 10:06:53;;;;;;;30.43;4.83;;;5.70;99.90;;;;;;5073302;28;20274;-68
2023/01/10 10:09:26;;;;;;;20.33;4.50;;;5.80;99.90;;;;;;5072727;28;20212;-69
2023/01/10 10:12:08;;;;;;;28.97;4.73;;;5.90;99.90;;;;;;5071765;28;20188;-69
2023/01/10 10:14:55;;;;;;;18.50;4.13;;;6.00;99.90;;;;;;5071967;28;20184;-68
2023/01/10 10:17:35;;;;;;;19.13;4.37;;;6.00;99.90;;;;;;5073491;28;20206;-68
2023/01/10 10:20:24;;;;;;;19.03;4.80;;;6.00;99.90;;;;;;5073056;28;20223;-68
2023/01/10 10:23:06;;;;;;;25.27;4.67;;;6.10;99.90;;;;;;5073066;28;20188;-68
2023/01/10 10:25:52;;;;;;;20.87;4.73;;;6.10;99.90;;;;;;5072185;28;20187;-68
2023/01/10 10:28:52;;;;;;;17.80;4.37;;;6.10;99.90;;;;;;5071885;28;20286;-68
2023/01/10 10:31:33;;;;;;;23.93;4.87;;;6.20;99.90;;;;;;5059356;28;20238;-68
2023/01/10 10:34:11;;;;;;;23.00;4.70;;;6.20;99.90;;;;;;5073103;28;20272;-68
2023/01/10 10:36:45;;;;;;;15.73;4.13;;;6.10;99.90;;;;;;5073048;28;20204;-68
2023/01/10 10:39:21;;;;;;;17.97;4.17;;;6.20;99.90;;;;;;5073159;28;20263;-68
2023/01/10 10:41:53;;;;;;;14.80;4.00;;;6.20;99.90;;;;;;5072942;28;20234;-68
2023/01/10 10:44:33;;;;;;;20.17;4.43;;;6.30;99.90;;;;;;5071794;28;20199;-68
2023/01/10 10:47:02;;;;;;;17.00;3.77;;;6.40;99.90;;;;;;5071664;28;20188;-69
2023/01/10 10:49:37;;;;;;;20.77;4.10;;;6.40;99.90;;;;;;5072807;28;20211;-69
2023/01/10 10:52:14;;;;;;;23.47;4.13;;;6.40;99.90;;;;;;5072639;28;20202;-68
2023/01/10 10:54:44;;;;;;;25.27;3.87;;;6.50;99.90;;;;;;5072858;28;20205;-68
2023/01/10 10:57:15;;;;;;;17.50;4.37;;;6.40;99.90;;;;;;5072757;28;20299;-68
2023/01/10 10:59:46;;;;;;;22.47;4.63;;;6.50;99.90;;;;;;5071478;28;20191;-69
2023/01/10 11:02:24;;;;;;;18.17;3.93;;;6.50;99.90;;;;;;5072521;28;20188;-68
2023/01/10 11:05:36;;;;;;;19.67;3.90;;;6.60;99.90;;;;;;5073055;28;20234;-68
2023/01/10 11:08:11;;;;;;;19.73;4.73;;;6.60;99.90;;;;;;5072044;28;20523;-68
2023/01/10 11:10:41;;;;;;;30.50;5.07;;;6.60;99.90;;;;;;5071779;28;20212;-68
2023/01/10 11:13:20;;;;;;;17.87;4.27;;;6.60;99.90;;;;;;5072285;28;20275;-68
2023/01/10 11:15:50;;;;;;;18.03;4.40;;;6.70;99.90;;;;;;5071747;28;20235;-68
2023/01/10 11:18:21;;;;;;;21.90;4.43;;;6.70;99.90;;;;;;5071494;28;20200;-68
2023/01/10 11:20:52;;;;;;;25.60;4.77;;;6.70;99.90;;;;;;5071706;28;20698;-68
2023/01/10 11:23:28;;;;;;;17.77;4.17;;;6.70;99.90;;;;;;5075091;28;20310;-68
2023/01/10 11:25:58;;;;;;;20.10;4.17;;;6.80;99.90;;;;;;5076092;28;20542;-68
2023/01/10 11:28:31;;;;;;;21.60;4.80;;;6.80;99.90;;;;;;5076213;28;20192;-68
2023/01/10 11:31:02;;;;;;;25.50;4.63;;;6.80;99.90;;;;;;5076046;28;20212;-68
2023/01/10 11:33:34;;;;;;;21.63;4.10;;;6.90;99.90;;;;;;5075958;28;20191;-68
2023/01/10 11:36:05;;;;;;;26.90;5.20;;;6.90;99.90;;;;;;5076035;28;20188;-68
2023/01/10 11:38:34;;;;;;;22.43;4.20;;;7.00;99.90;;;;;;5076209;28;20198;-68
2023/01/10 11:41:06;;;;;;;15.67;3.87;;;7.00;99.90;;;;;;5075849;28;20235;-68
2023/01/10 11:43:36;;;;;;;18.97;3.70;;;7.10;99.90;;;;;;5075939;28;20188;-68
2023/01/10 11:50:51;;;;;;;26.20;4.37;;;7.20;99.90;;;;;;5075737;28;20212;-68
2023/01/10 11:53:36;;;;;;;16.20;4.30;;;7.20;99.90;;;;;;5075897;28;20192;-68
2023/01/10 11:56:10;;;;;;;26.53;4.20;;;7.20;99.90;;;;;;5056282;28;20185;-67
2023/01/10 11:58:39;;;;;;;17.50;4.40;;;7.10;99.90;;;;;;5055489;28;20202;-68
2023/01/10 12:01:30;;;;;;;27.00;4.73;;;7.10;99.90;;;;;;5066215;28;20287;-68
2023/01/10 12:03:59;;;;;;;20.77;4.30;;;7.10;99.90;;;;;;5076562;28;20222;-68
2023/01/10 12:06:28;;;;;;;18.80;4.20;;;7.00;99.90;;;;;;5095546;28;20274;-68
2023/01/10 12:08:57;;;;;;;15.10;3.53;;;7.00;99.90;;;;;;5078812;28;20193;-68
2023/01/10 12:11:30;;;;;;;15.27;3.60;;;7.00;99.90;;;;;;5070710;28;20722;-68
2023/01/10 12:14:01;;;;;;;17.60;3.30;;;6.90;99.90;;;;;;5065145;28;20211;-68
2023/01/10 12:16:31;;;;;;;24.13;4.43;;;6.90;99.90;;;;;;5072768;28;20192;-68
2023/01/10 12:19:02;;;;;;;13.67;3.70;;;6.90;99.90;;;;;;5074083;28;20270;-70
2023/01/10 12:21:36;;;;;;;26.20;3.90;;;6.90;99.90;;;;;;5073912;28;20188;-69
2023/01/10 12:24:07;;;;;;;19.90;3.40;;;6.80;99.90;;;;;;5063167;28;20224;-69
2023/01/10 12:26:37;;;;;;;18.73;3.60;;;6.80;99.90;;;;;;5055063;28;20203;-69
2023/01/10 12:29:12;;;;;;;20.67;3.50;;;6.90;99.90;;;;;;5055018;28;20204;-69
2023/01/10 12:31:41;;;;;;;20.90;3.70;;;6.80;99.90;;;;;;5054484;28;20216;-70
2023/01/10 12:34:18;;;;;;;15.50;3.57;;;6.80;99.90;;;;;;5070837;28;20206;-69
2023/01/10 12:36:58;;;;;;;22.70;4.03;;;6.90;99.90;;;;;;5073778;28;20200;-69
2023/01/10 12:39:32;;;;;;;13.53;3.43;;;6.90;99.90;;;;;;5073566;28;20222;-69
2023/01/10 12:45:07;;;;;;;16.37;3.40;;;6.90;99.90;;;;;;5074700;28;20206;-68
2023/01/10 12:47:46;;;;;;;12.63;3.63;;;6.90;99.90;;;;;;5073188;28;20635;-68
2023/01/10 12:50:20;;;;;;;11.27;2.60;;;6.80;99.90;;;;;;5074524;28;20212;-69
2023/01/10 12:52:55;;;;;;;12.10;3.10;;;6.80;99.90;;;;;;5062350;28;20184;-68
2023/01/10 12:55:27;;;;;;;10.93;3.07;;;6.80;99.90;;;;;;5074629;28;20205;-69
2023/01/10 12:58:00;;;;;;;11.77;3.47;;;6.80;99.90;;;;;;5045845;28;20575;-69
2023/01/10 13:00:33;;;;;;;9.13;3.97;;;6.80;99.90;;;;;;5074529;28;20207;-69
2023/01/10 13:03:19;;;;;;;17.23;3.07;;;6.80;99.90;;;;;;5057119;28;20191;-69
2023/01/10 13:05:50;;;;;;;13.63;4.10;;;6.80;99.90;;;;;;5070757;28;20229;-68
2023/01/10 13:08:23;;;;;;;13.20;3.20;;;6.80;99.90;;;;;;5074225;28;20188;-68
2023/01/10 13:10:54;;;;;;;19.07;4.20;;;6.80;99.90;;;;;;5070500;28;20211;-68
2023/01/10 13:13:32;;;;;;;11.27;3.73;;;6.80;99.90;;;;;;5069861;28;20222;-68
2023/01/10 13:16:17;;;;;;;21.43;4.80;;;6.80;99.90;;;;;;5071515;28;20202;-68
2023/01/10 13:19:00;;;;;;;12.83;3.43;;;6.80;99.90;;;;;;5073662;28;20199;-67
2023/01/10 13:21:30;;;;;;;13.17;3.57;;;6.70;99.90;;;;;;5072951;28;20215;-68
2023/01/10 13:24:00;;;;;;;16.97;3.93;;;6.70;99.90;;;;;;5073522;28;20223;-68
2023/01/10 13:26:46;;;;;;;10.43;3.00;;;6.70;99.90;;;;;;5069076;28;20263;-68
2023/01/10 13:29:19;;;;;;;21.00;3.73;;;6.70;99.90;;;;;;5083422;28;20184;-67
2023/01/10 13:31:55;;;;;;;15.30;4.03;;;6.60;99.90;;;;;;5073246;28;20212;-68
2023/01/10 13:34:31;;;;;;;26.23;3.10;;;6.60;99.90;;;;;;5069291;28;20195;-68
2023/01/10 13:37:02;;;;;;;12.80;3.30;;;6.60;99.90;;;;;;5062366;28;20193;-68
2023/01/10 13:39:35;;;;;;;18.97;3.27;;;6.60;99.90;;;;;;5067674;28;20695;-69
2023/01/10 13:45:18;;;;;;;9.90;2.93;;;6.50;99.90;;;;;;5066939;28;20196;-69
2023/01/10 13:48:03;;;;;;;20.63;3.77;;;6.40;99.90;;;;;;5067799;28;20650;-68
2023/01/10 13:51:05;;;;;;;17.73;3.70;;;6.40;99.90;;;;;;5062679;28;20205;-68